< < Back
Terminal Aerodrome Forecast


Current Version              Previous Versions:   1  2  3  4  5  6  7  8  9  

Terminal Aerodrome Forecast

200
FTUS44 KOHX 292300
TAFCSV
TAF
KCSV 292320Z 3000/3024 36008G16KT P6SM BKN050
     FM300200 34002KT P6SM SKC
      TEMPO 3010/3012 4SM BR
     FM301800 33006KT P6SM SCT250=



Latest METAR

719
SAUS70 KWBC 300256
MTRCSV
METAR KCSV 300253Z AUTO 00000KT 10SM CLR 16/12 A3013 RMK AO2 SLP190
T01560122 53008


USA.gov is the U.S. government's official web portal to all federal, state and local government web resources and services.